sensor_id;sensor_type;location;lat;lon;timestamp;pressure;altitude;pressure_sealevel;temperature;humidity
41712;BME280;27399;51.516;13.670;2022-08-01T00:01:47;100199.28;;;24.87;65.25
41712;BME280;27399;51.516;13.670;2022-08-01T00:04:15;100193.94;;;24.72;65.50
41712;BME280;27399;51.516;13.670;2022-08-01T00:06:41;100195.34;;;24.65;65.56
41712;BME280;27399;51.516;13.670;2022-08-01T00:09:06;100202.56;;;24.53;65.96
41712;BME280;27399;51.516;13.670;2022-08-01T00:11:31;100199.69;;;24.68;65.34
41712;BME280;27399;51.516;13.670;2022-08-01T00:13:57;100189.44;;;24.58;65.74
41712;BME280;27399;51.516;13.670;2022-08-01T00:16:22;100195.78;;;24.59;65.64
41712;BME280;27399;51.516;13.670;2022-08-01T00:18:48;100193.59;;;24.51;65.74
41712;BME280;27399;51.516;13.670;2022-08-01T00:21:14;100204.50;;;24.51;65.70
41712;BME280;27399;51.516;13.670;2022-08-01T00:23:40;100202.88;;;24.49;65.97
41712;BME280;27399;51.516;13.670;2022-08-01T00:26:05;100194.25;;;24.42;66.16
41712;BME280;27399;51.516;13.670;2022-08-01T00:28:31;100188.56;;;24.45;66.06
41712;BME280;27399;51.516;13.670;2022-08-01T00:30:56;100197.84;;;24.42;66.41
41712;BME280;27399;51.516;13.670;2022-08-01T00:33:21;100194.25;;;24.42;66.64
41712;BME280;27399;51.516;13.670;2022-08-01T00:35:47;100195.44;;;24.38;66.87
41712;BME280;27399;51.516;13.670;2022-08-01T00:38:12;100195.31;;;24.13;67.65
41712;BME280;27399;51.516;13.670;2022-08-01T00:40:37;100190.63;;;24.28;67.31
41712;BME280;27399;51.516;13.670;2022-08-01T00:43:03;100195.41;;;24.12;67.51
41712;BME280;27399;51.516;13.670;2022-08-01T00:45:28;100193.25;;;24.17;67.50
41712;BME280;27399;51.516;13.670;2022-08-01T00:47:54;100189.66;;;24.17;67.65
41712;BME280;27399;51.516;13.670;2022-08-01T00:50:19;100198.97;;;24.00;67.84
41712;BME280;27399;51.516;13.670;2022-08-01T00:52:45;100192.31;;;24.04;68.25
41712;BME280;27399;51.516;13.670;2022-08-01T00:55:10;100200.56;;;23.89;68.42
41712;BME280;27399;51.516;13.670;2022-08-01T00:57:37;100196.25;;;24.00;68.28
41712;BME280;27399;51.516;13.670;2022-08-01T01:00:04;100195.78;;;23.93;68.80
41712;BME280;27399;51.516;13.670;2022-08-01T01:02:30;100190.69;;;23.74;69.11
41712;BME280;27399;51.516;13.670;2022-08-01T01:04:55;100190.66;;;23.61;69.42
41712;BME280;27399;51.516;13.670;2022-08-01T01:12:59;100182.63;;;23.45;70.70
41712;BME280;27399;51.516;13.670;2022-08-01T01:15:31;100184.47;;;23.44;70.88
41712;BME280;27399;51.516;13.670;2022-08-01T01:18:09;100188.25;;;23.56;70.01
41712;BME280;27399;51.516;13.670;2022-08-01T01:20:37;100187.66;;;23.51;70.63
41712;BME280;27399;51.516;13.670;2022-08-01T01:23:21;100184.63;;;23.56;70.05
41712;BME280;27399;51.516;13.670;2022-08-01T01:28:35;100194.06;;;23.50;70.30
41712;BME280;27399;51.516;13.670;2022-08-01T01:31:06;100186.78;;;23.23;71.02
41712;BME280;27399;51.516;13.670;2022-08-01T01:33:34;100185.00;;;23.36;70.89
41712;BME280;27399;51.516;13.670;2022-08-01T01:36:03;100183.25;;;23.35;70.53
41712;BME280;27399;51.516;13.670;2022-08-01T01:38:32;100183.19;;;23.50;69.95
41712;BME280;27399;51.516;13.670;2022-08-01T01:40:59;100189.78;;;23.33;70.62
41712;BME280;27399;51.516;13.670;2022-08-01T01:43:25;100188.88;;;23.32;70.87
41712;BME280;27399;51.516;13.670;2022-08-01T01:45:51;100189.91;;;23.44;70.46
41712;BME280;27399;51.516;13.670;2022-08-01T01:48:19;100184.78;;;23.40;70.74
41712;BME280;27399;51.516;13.670;2022-08-01T01:50:46;100185.97;;;23.35;70.70
41712;BME280;27399;51.516;13.670;2022-08-01T01:53:12;100191.59;;;23.47;70.22
41712;BME280;27399;51.516;13.670;2022-08-01T01:55:39;100190.81;;;23.45;70.43
41712;BME280;27399;51.516;13.670;2022-08-01T01:58:06;100189.16;;;23.42;70.60
41712;BME280;27399;51.516;13.670;2022-08-01T02:00:32;100182.66;;;23.30;70.92
41712;BME280;27399;51.516;13.670;2022-08-01T02:02:58;100181.81;;;23.30;70.61
41712;BME280;27399;51.516;13.670;2022-08-01T02:05:24;100172.56;;;23.18;71.14
41712;BME280;27399;51.516;13.670;2022-08-01T02:07:51;100186.47;;;23.28;71.22
41712;BME280;27399;51.516;13.670;2022-08-01T02:10:18;100184.78;;;23.40;70.82
41712;BME280;27399;51.516;13.670;2022-08-01T02:12:44;100191.09;;;23.40;70.64
41712;BME280;27399;51.516;13.670;2022-08-01T02:15:11;100188.94;;;23.45;70.50
41712;BME280;27399;51.516;13.670;2022-08-01T02:17:39;100189.41;;;23.10;71.56
41712;BME280;27399;51.516;13.670;2022-08-01T02:20:06;100201.81;;;23.29;71.10
41712;BME280;27399;51.516;13.670;2022-08-01T02:22:32;100189.06;;;23.29;70.86
41712;BME280;27399;51.516;13.670;2022-08-01T02:27:49;100189.00;;;23.02;72.29
41712;BME280;27399;51.516;13.670;2022-08-01T02:30:15;100188.31;;;23.13;72.11
41712;BME280;27399;51.516;13.670;2022-08-01T02:32:43;100187.16;;;23.17;72.10
41712;BME280;27399;51.516;13.670;2022-08-01T02:35:09;100191.59;;;23.32;71.78
41712;BME280;27399;51.516;13.670;2022-08-01T02:37:37;100197.00;;;23.19;72.25
41712;BME280;27399;51.516;13.670;2022-08-01T02:40:03;100187.06;;;23.04;72.93
41712;BME280;27399;51.516;13.670;2022-08-01T02:42:29;100188.00;;;23.17;72.47
41712;BME280;27399;51.516;13.670;2022-08-01T02:44:55;100186.16;;;23.18;72.31
41712;BME280;27399;51.516;13.670;2022-08-01T02:47:21;100192.09;;;23.39;71.96
41712;BME280;27399;51.516;13.670;2022-08-01T02:49:48;100192.31;;;23.07;73.02
41712;BME280;27399;51.516;13.670;2022-08-01T02:52:16;100194.53;;;23.00;73.14
41712;BME280;27399;51.516;13.670;2022-08-01T02:54:43;100185.41;;;23.01;73.46
41712;BME280;27399;51.516;13.670;2022-08-01T02:57:09;100186.19;;;22.89;73.96
41712;BME280;27399;51.516;13.670;2022-08-01T02:59:36;100193.00;;;22.82;74.08
41712;BME280;27399;51.516;13.670;2022-08-01T03:02:03;100198.34;;;22.83;74.34
41712;BME280;27399;51.516;13.670;2022-08-01T03:04:30;100193.56;;;22.87;74.04
41712;BME280;27399;51.516;13.670;2022-08-01T03:06:56;100198.94;;;22.88;73.83
41712;BME280;27399;51.516;13.670;2022-08-01T03:09:24;100192.81;;;22.70;74.58
41712;BME280;27399;51.516;13.670;2022-08-01T03:11:50;100197.09;;;22.74;74.54
41712;BME280;27399;51.516;13.670;2022-08-01T03:14:16;100200.75;;;22.88;74.07
41712;BME280;27399;51.516;13.670;2022-08-01T03:16:43;100190.69;;;22.61;74.96
41712;BME280;27399;51.516;13.670;2022-08-01T03:19:10;100192.22;;;22.80;74.18
41712;BME280;27399;51.516;13.670;2022-08-01T03:21:36;100204.56;;;22.56;74.88
41712;BME280;27399;51.516;13.670;2022-08-01T03:24:03;100200.19;;;22.83;74.45
41712;BME280;27399;51.516;13.670;2022-08-01T03:26:30;100205.16;;;22.90;74.06
41712;BME280;27399;51.516;13.670;2022-08-01T03:28:58;100201.06;;;22.69;74.75
41712;BME280;27399;51.516;13.670;2022-08-01T03:31:26;100200.09;;;22.55;74.98
41712;BME280;27399;51.516;13.670;2022-08-01T03:33:52;100211.06;;;22.54;75.21
41712;BME280;27399;51.516;13.670;2022-08-01T03:36:20;100202.22;;;22.65;74.83
41712;BME280;27399;51.516;13.670;2022-08-01T03:38:46;100204.53;;;22.71;74.56
41712;BME280;27399;51.516;13.670;2022-08-01T03:41:13;100201.81;;;22.71;74.38
41712;BME280;27399;51.516;13.670;2022-08-01T03:43:43;100205.03;;;22.78;74.26
41712;BME280;27399;51.516;13.670;2022-08-01T03:46:11;100209.22;;;22.83;73.98
41712;BME280;27399;51.516;13.670;2022-08-01T03:48:42;100208.53;;;22.51;75.18
41712;BME280;27399;51.516;13.670;2022-08-01T03:51:08;100207.38;;;22.84;74.05
41712;BME280;27399;51.516;13.670;2022-08-01T03:53:35;100204.09;;;22.64;75.06
41712;BME280;27399;51.516;13.670;2022-08-01T03:56:02;100203.78;;;22.83;74.65
41712;BME280;27399;51.516;13.670;2022-08-01T03:58:28;100206.22;;;22.73;74.94
41712;BME280;27399;51.516;13.670;2022-08-01T04:00:54;100205.41;;;22.86;74.47
41712;BME280;27399;51.516;13.670;2022-08-01T04:03:20;100210.09;;;22.84;74.90
41712;BME280;27399;51.516;13.670;2022-08-01T04:05:45;100208.13;;;22.86;74.79
41712;BME280;27399;51.516;13.670;2022-08-01T04:08:11;100205.63;;;22.83;74.90
41712;BME280;27399;51.516;13.670;2022-08-01T04:10:36;100209.19;;;23.12;73.66
41712;BME280;27399;51.516;13.670;2022-08-01T04:13:02;100215.31;;;23.16;73.29
41712;BME280;27399;51.516;13.670;2022-08-01T04:15:27;100209.69;;;23.04;73.45
41712;BME280;27399;51.516;13.670;2022-08-01T04:17:53;100214.34;;;23.17;73.25
41712;BME280;27399;51.516;13.670;2022-08-01T04:20:19;100213.38;;;23.03;74.09
41712;BME280;27399;51.516;13.670;2022-08-01T04:22:44;100208.81;;;23.18;73.77
41712;BME280;27399;51.516;13.670;2022-08-01T04:25:27;100217.66;;;23.36;73.17
41712;BME280;27399;51.516;13.670;2022-08-01T04:27:54;100213.31;;;23.19;73.97
41712;BME280;27399;51.516;13.670;2022-08-01T04:30:29;100220.44;;;23.35;73.46
41712;BME280;27399;51.516;13.670;2022-08-01T04:32:57;100225.41;;;23.28;73.57
41712;BME280;27399;51.516;13.670;2022-08-01T04:35:24;100224.13;;;23.34;73.40
41712;BME280;27399;51.516;13.670;2022-08-01T04:37:50;100223.88;;;23.39;73.59
41712;BME280;27399;51.516;13.670;2022-08-01T04:40:16;100228.66;;;23.20;73.68
41712;BME280;27399;51.516;13.670;2022-08-01T04:42:42;100230.94;;;23.41;73.52
41712;BME280;27399;51.516;13.670;2022-08-01T04:45:08;100233.56;;;23.43;73.62
41712;BME280;27399;51.516;13.670;2022-08-01T04:47:34;100225.81;;;23.36;74.15
41712;BME280;27399;51.516;13.670;2022-08-01T04:50:00;100233.38;;;23.46;73.63
41712;BME280;27399;51.516;13.670;2022-08-01T04:52:35;100238.94;;;23.30;74.46
41712;BME280;27399;51.516;13.670;2022-08-01T04:55:01;100234.41;;;23.58;73.47
41712;BME280;27399;51.516;13.670;2022-08-01T04:57:27;100240.94;;;23.41;73.99
41712;BME280;27399;51.516;13.670;2022-08-01T04:59:52;100232.59;;;23.29;74.98
41712;BME280;27399;51.516;13.670;2022-08-01T05:02:22;100238.31;;;23.54;73.96
41712;BME280;27399;51.516;13.670;2022-08-01T05:04:47;100240.75;;;23.44;74.45
41712;BME280;27399;51.516;13.670;2022-08-01T05:07:13;100247.78;;;23.19;75.22
41712;BME280;27399;51.516;13.670;2022-08-01T05:09:39;100247.97;;;23.16;75.71
41712;BME280;27399;51.516;13.670;2022-08-01T05:12:06;100250.47;;;23.48;75.11
41712;BME280;27399;51.516;13.670;2022-08-01T05:14:32;100241.84;;;23.41;75.26
41712;BME280;27399;51.516;13.670;2022-08-01T05:16:58;100254.47;;;23.42;74.87
41712;BME280;27399;51.516;13.670;2022-08-01T05:19:24;100252.78;;;23.54;74.85
41712;BME280;27399;51.516;13.670;2022-08-01T05:21:50;100253.06;;;23.64;74.45
41712;BME280;27399;51.516;13.670;2022-08-01T05:24:16;100247.88;;;23.74;74.38
41712;BME280;27399;51.516;13.670;2022-08-01T05:26:41;100248.63;;;23.48;75.53
41712;BME280;27399;51.516;13.670;2022-08-01T05:29:06;100251.91;;;23.54;75.18
41712;BME280;27399;51.516;13.670;2022-08-01T05:31:32;100244.16;;;23.18;76.91
41712;BME280;27399;51.516;13.670;2022-08-01T05:33:59;100253.44;;;23.58;75.67
41712;BME280;27399;51.516;13.670;2022-08-01T05:36:25;100252.44;;;23.31;76.74
41712;BME280;27399;51.516;13.670;2022-08-01T05:38:50;100254.56;;;23.41;76.56
41712;BME280;27399;51.516;13.670;2022-08-01T05:41:16;100245.16;;;23.32;77.35
41712;BME280;27399;51.516;13.670;2022-08-01T05:43:41;100244.38;;;23.72;76.18
41712;BME280;27399;51.516;13.670;2022-08-01T05:46:07;100238.97;;;23.57;77.19
41712;BME280;27399;51.516;13.670;2022-08-01T05:48:32;100252.94;;;23.65;76.42
41712;BME280;27399;51.516;13.670;2022-08-01T05:50:58;100246.34;;;23.70;76.64
41712;BME280;27399;51.516;13.670;2022-08-01T05:53:23;100255.06;;;23.75;76.63
41712;BME280;27399;51.516;13.670;2022-08-01T05:55:48;100253.50;;;23.71;77.02
41712;BME280;27399;51.516;13.670;2022-08-01T05:58:14;100250.75;;;23.85;76.58
41712;BME280;27399;51.516;13.670;2022-08-01T06:00:39;100257.44;;;23.94;76.69
41712;BME280;27399;51.516;13.670;2022-08-01T06:03:05;100259.88;;;23.98;77.23
41712;BME280;27399;51.516;13.670;2022-08-01T06:05:30;100265.13;;;23.87;78.33
41712;BME280;27399;51.516;13.670;2022-08-01T06:07:56;100257.47;;;23.79;80.46
41712;BME280;27399;51.516;13.670;2022-08-01T06:10:23;100265.00;;;23.61;79.82
41712;BME280;27399;51.516;13.670;2022-08-01T06:12:48;100262.44;;;23.73;79.06
41712;BME280;27399;51.516;13.670;2022-08-01T06:15:14;100266.28;;;23.56;79.83
41712;BME280;27399;51.516;13.670;2022-08-01T06:17:39;100267.59;;;23.21;80.36
41712;BME280;27399;51.516;13.670;2022-08-01T06:20:06;100269.78;;;23.58;79.39
41712;BME280;27399;51.516;13.670;2022-08-01T06:22:32;100267.53;;;23.64;79.54
41712;BME280;27399;51.516;13.670;2022-08-01T06:24:57;100266.34;;;23.27;80.69
41712;BME280;27399;51.516;13.670;2022-08-01T06:27:23;100267.97;;;23.44;80.14
41712;BME280;27399;51.516;13.670;2022-08-01T06:29:50;100270.44;;;23.61;79.63
41712;BME280;27399;51.516;13.670;2022-08-01T06:32:18;100277.63;;;23.62;79.76
41712;BME280;27399;51.516;13.670;2022-08-01T06:34:43;100279.72;;;23.86;79.11
41712;BME280;27399;51.516;13.670;2022-08-01T06:37:09;100280.59;;;23.87;79.70
41712;BME280;27399;51.516;13.670;2022-08-01T06:39:34;100281.44;;;23.74;80.27
41712;BME280;27399;51.516;13.670;2022-08-01T06:42:00;100281.00;;;23.80;79.77
41712;BME280;27399;51.516;13.670;2022-08-01T06:44:25;100291.16;;;24.06;78.81
41712;BME280;27399;51.516;13.670;2022-08-01T06:46:50;100277.78;;;23.88;79.37
41712;BME280;27399;51.516;13.670;2022-08-01T06:49:16;100284.75;;;24.07;79.08
41712;BME280;27399;51.516;13.670;2022-08-01T06:51:41;100287.16;;;24.11;78.31
41712;BME280;27399;51.516;13.670;2022-08-01T06:54:07;100292.91;;;23.92;78.94
41712;BME280;27399;51.516;13.670;2022-08-01T06:56:32;100295.53;;;23.66;79.25
41712;BME280;27399;51.516;13.670;2022-08-01T06:59:00;100284.22;;;23.73;79.58
41712;BME280;27399;51.516;13.670;2022-08-01T07:01:26;100293.34;;;24.01;79.40
41712;BME280;27399;51.516;13.670;2022-08-01T07:03:52;100293.22;;;24.02;78.54
41712;BME280;27399;51.516;13.670;2022-08-01T07:06:17;100288.59;;;24.17;78.12
41712;BME280;27399;51.516;13.670;2022-08-01T07:08:43;100288.84;;;24.00;78.87
41712;BME280;27399;51.516;13.670;2022-08-01T07:11:08;100288.16;;;24.23;78.70
41712;BME280;27399;51.516;13.670;2022-08-01T07:13:34;100286.66;;;24.32;77.81
41712;BME280;27399;51.516;13.670;2022-08-01T07:15:59;100287.97;;;24.26;77.52
41712;BME280;27399;51.516;13.670;2022-08-01T07:18:24;100286.53;;;24.21;77.53
41712;BME280;27399;51.516;13.670;2022-08-01T07:20:50;100286.88;;;24.29;77.03
41712;BME280;27399;51.516;13.670;2022-08-01T07:23:15;100289.06;;;24.37;76.61
41712;BME280;27399;51.516;13.670;2022-08-01T07:25:41;100290.13;;;24.21;77.25
41712;BME280;27399;51.516;13.670;2022-08-01T07:28:07;100300.19;;;24.34;77.41
41712;BME280;27399;51.516;13.670;2022-08-01T07:30:32;100299.38;;;24.19;78.39
41712;BME280;27399;51.516;13.670;2022-08-01T07:32:58;100299.47;;;24.17;78.99
41712;BME280;27399;51.516;13.670;2022-08-01T07:35:23;100294.50;;;24.24;78.37
41712;BME280;27399;51.516;13.670;2022-08-01T07:37:49;100299.09;;;24.36;77.74
41712;BME280;27399;51.516;13.670;2022-08-01T07:40:14;100295.16;;;24.27;78.59
41712;BME280;27399;51.516;13.670;2022-08-01T07:42:40;100299.34;;;24.46;78.07
41712;BME280;27399;51.516;13.670;2022-08-01T07:45:10;100303.81;;;24.07;78.24
41712;BME280;27399;51.516;13.670;2022-08-01T07:47:36;100254.31;;;24.00;77.91
41712;BME280;27399;51.516;13.670;2022-08-01T07:50:02;100299.13;;;24.49;77.44
41712;BME280;27399;51.516;13.670;2022-08-01T07:52:28;100291.94;;;24.48;78.01
41712;BME280;27399;51.516;13.670;2022-08-01T07:54:55;100293.88;;;24.46;78.43
41712;BME280;27399;51.516;13.670;2022-08-01T07:57:21;100297.59;;;24.45;77.87
41712;BME280;27399;51.516;13.670;2022-08-01T07:59:47;100291.75;;;24.64;77.55
41712;BME280;27399;51.516;13.670;2022-08-01T08:02:12;100291.41;;;24.56;77.50
41712;BME280;27399;51.516;13.670;2022-08-01T08:04:38;100286.13;;;24.27;78.08
41712;BME280;27399;51.516;13.670;2022-08-01T08:07:03;100288.03;;;24.52;76.64
41712;BME280;27399;51.516;13.670;2022-08-01T08:09:29;100291.53;;;24.54;76.94
41712;BME280;27399;51.516;13.670;2022-08-01T08:11:54;100296.50;;;24.88;75.62
41712;BME280;27399;51.516;13.670;2022-08-01T08:14:19;100287.44;;;25.00;75.08
41712;BME280;27399;51.516;13.670;2022-08-01T08:16:47;100286.78;;;24.97;76.24
41712;BME280;27399;51.516;13.670;2022-08-01T08:19:13;100297.47;;;25.00;75.14
41712;BME280;27399;51.516;13.670;2022-08-01T08:21:39;100298.88;;;24.93;75.58
41712;BME280;27399;51.516;13.670;2022-08-01T08:24:05;100287.72;;;24.57;76.62
41712;BME280;27399;51.516;13.670;2022-08-01T08:26:50;100300.41;;;24.71;76.50
41712;BME280;27399;51.516;13.670;2022-08-01T08:29:16;100293.97;;;24.98;75.82
41712;BME280;27399;51.516;13.670;2022-08-01T08:31:41;100302.34;;;24.69;76.76
41712;BME280;27399;51.516;13.670;2022-08-01T08:34:07;100311.13;;;24.47;79.17
41712;BME280;27399;51.516;13.670;2022-08-01T08:36:32;100302.97;;;24.59;81.23
41712;BME280;27399;51.516;13.670;2022-08-01T08:38:58;100309.84;;;24.52;83.13
41712;BME280;27399;51.516;13.670;2022-08-01T08:41:25;100300.53;;;24.69;83.13
41712;BME280;27399;51.516;13.670;2022-08-01T08:43:51;100310.38;;;24.57;84.80
41712;BME280;27399;51.516;13.670;2022-08-01T08:46:16;100306.50;;;24.74;82.67
41712;BME280;27399;51.516;13.670;2022-08-01T08:48:42;100305.09;;;24.82;82.63
41712;BME280;27399;51.516;13.670;2022-08-01T08:51:08;100303.25;;;24.82;81.84
41712;BME280;27399;51.516;13.670;2022-08-01T08:53:34;100305.91;;;24.56;81.17
41712;BME280;27399;51.516;13.670;2022-08-01T08:56:00;100310.34;;;24.44;77.70
41712;BME280;27399;51.516;13.670;2022-08-01T08:58:26;100312.25;;;24.57;77.30
41712;BME280;27399;51.516;13.670;2022-08-01T09:00:53;100306.50;;;24.74;78.15
41712;BME280;27399;51.516;13.670;2022-08-01T09:03:18;100311.75;;;24.78;77.69
41712;BME280;27399;51.516;13.670;2022-08-01T09:05:44;100307.41;;;24.75;77.18
41712;BME280;27399;51.516;13.670;2022-08-01T09:08:15;100314.28;;;24.94;75.50
41712;BME280;27399;51.516;13.670;2022-08-01T09:10:41;100313.19;;;24.83;77.27
41712;BME280;27399;51.516;13.670;2022-08-01T09:13:08;100320.94;;;25.02;75.56
41712;BME280;27399;51.516;13.670;2022-08-01T09:15:39;100322.47;;;24.94;77.60
41712;BME280;27399;51.516;13.670;2022-08-01T09:18:05;100322.44;;;25.06;75.40
41712;BME280;27399;51.516;13.670;2022-08-01T09:20:31;100321.47;;;24.95;77.26
41712;BME280;27399;51.516;13.670;2022-08-01T09:22:56;100319.06;;;25.03;76.49
41712;BME280;27399;51.516;13.670;2022-08-01T09:25:22;100321.47;;;24.95;76.45
41712;BME280;27399;51.516;13.670;2022-08-01T09:27:47;100318.97;;;25.17;75.85
41712;BME280;27399;51.516;13.670;2022-08-01T09:30:17;100316.03;;;25.46;75.57
41712;BME280;27399;51.516;13.670;2022-08-01T09:33:00;100322.75;;;25.53;75.44
41712;BME280;27399;51.516;13.670;2022-08-01T09:35:29;100317.53;;;25.50;73.43
41712;BME280;27399;51.516;13.670;2022-08-01T09:38:19;100319.19;;;25.53;73.16
41712;BME280;27399;51.516;13.670;2022-08-01T09:43:11;100324.09;;;25.48;73.00
41712;BME280;27399;51.516;13.670;2022-08-01T09:45:37;100327.13;;;25.30;72.43
41712;BME280;27399;51.516;13.670;2022-08-01T09:48:06;100323.44;;;25.44;71.61
41712;BME280;27399;51.516;13.670;2022-08-01T09:50:39;100331.25;;;25.62;72.81
41712;BME280;27399;51.516;13.670;2022-08-01T09:53:05;100346.13;;;25.32;72.09
41712;BME280;27399;51.516;13.670;2022-08-01T09:55:31;100337.66;;;25.49;72.56
41712;BME280;27399;51.516;13.670;2022-08-01T09:57:56;100352.28;;;25.48;73.03
41712;BME280;27399;51.516;13.670;2022-08-01T10:00:25;100366.97;;;25.33;74.69
41712;BME280;27399;51.516;13.670;2022-08-01T10:02:51;100377.31;;;24.21;85.04
41712;BME280;27399;51.516;13.670;2022-08-01T10:05:16;100379.47;;;24.16;86.33
41712;BME280;27399;51.516;13.670;2022-08-01T10:07:55;100389.41;;;23.88;86.81
41712;BME280;27399;51.516;13.670;2022-08-01T10:10:21;100392.16;;;23.74;88.37
41712;BME280;27399;51.516;13.670;2022-08-01T10:12:46;100406.53;;;24.05;86.94
41712;BME280;27399;51.516;13.670;2022-08-01T10:15:15;100404.00;;;23.87;87.98
41712;BME280;27399;51.516;13.670;2022-08-01T10:17:43;100401.28;;;23.87;88.85
41712;BME280;27399;51.516;13.670;2022-08-01T10:20:11;100406.91;;;23.84;89.56
41712;BME280;27399;51.516;13.670;2022-08-01T10:22:37;100411.03;;;23.77;88.30
41712;BME280;27399;51.516;13.670;2022-08-01T10:25:03;100412.78;;;23.78;88.49
41712;BME280;27399;51.516;13.670;2022-08-01T10:27:30;100413.44;;;23.81;86.67
41712;BME280;27399;51.516;13.670;2022-08-01T10:29:58;100412.66;;;23.79;87.05
41712;BME280;27399;51.516;13.670;2022-08-01T10:32:31;100406.66;;;23.60;87.55
41712;BME280;27399;51.516;13.670;2022-08-01T10:34:56;100406.53;;;23.61;86.68
41712;BME280;27399;51.516;13.670;2022-08-01T10:37:23;100406.66;;;23.60;86.67
41712;BME280;27399;51.516;13.670;2022-08-01T10:39:49;100403.81;;;23.76;86.63
41712;BME280;27399;51.516;13.670;2022-08-01T10:42:15;100409.84;;;23.95;86.11
41712;BME280;27399;51.516;13.670;2022-08-01T10:44:42;100399.16;;;23.34;87.69
41712;BME280;27399;51.516;13.670;2022-08-01T10:47:12;100404.03;;;23.44;85.08
41712;BME280;27399;51.516;13.670;2022-08-01T10:52:26;100402.88;;;23.48;83.28
41712;BME280;27399;51.516;13.670;2022-08-01T10:55:07;100411.25;;;23.59;82.10
41712;BME280;27399;51.516;13.670;2022-08-01T11:00:08;100403.00;;;24.17;81.46
41712;BME280;27399;51.516;13.670;2022-08-01T11:02:33;100408.50;;;23.59;83.22
41712;BME280;27399;51.516;13.670;2022-08-01T11:05:04;100406.84;;;24.00;83.63
41712;BME280;27399;51.516;13.670;2022-08-01T11:08:21;100399.72;;;24.12;81.54
41712;BME280;27399;51.516;13.670;2022-08-01T11:10:24;100414.09;;;24.14;81.28
41712;BME280;27399;51.516;13.670;2022-08-01T11:12:51;100412.78;;;23.78;80.99
41712;BME280;27399;51.516;13.670;2022-08-01T11:15:18;100406.16;;;24.11;80.39
41712;BME280;27399;51.516;13.670;2022-08-01T11:17:50;100408.19;;;24.62;82.38
41712;BME280;27399;51.516;13.670;2022-08-01T11:20:26;100410.22;;;24.18;79.42
41712;BME280;27399;51.516;13.670;2022-08-01T11:30:38;100397.63;;;24.98;77.64
41712;BME280;27399;51.516;13.670;2022-08-01T11:33:04;100392.72;;;25.16;76.37
41712;BME280;27399;51.516;13.670;2022-08-01T11:35:31;100401.06;;;25.40;78.55
41712;BME280;27399;51.516;13.670;2022-08-01T11:37:56;100393.97;;;25.50;75.76
41712;BME280;27399;51.516;13.670;2022-08-01T11:40:28;100391.78;;;25.56;77.00
41712;BME280;27399;51.516;13.670;2022-08-01T11:45:50;100393.66;;;25.42;76.77
41712;BME280;27399;51.516;13.670;2022-08-01T11:48:19;100381.25;;;25.75;74.75
41712;BME280;27399;51.516;13.670;2022-08-01T11:50:45;100381.06;;;25.78;74.72
41712;BME280;27399;51.516;13.670;2022-08-01T11:53:11;100378.59;;;26.12;74.52
41712;BME280;27399;51.516;13.670;2022-08-01T11:55:45;100382.16;;;25.63;73.10
41712;BME280;27399;51.516;13.670;2022-08-01T11:58:12;100378.00;;;26.07;73.98
41712;BME280;27399;51.516;13.670;2022-08-01T12:00:37;100381.41;;;26.11;74.36
41712;BME280;27399;51.516;13.670;2022-08-01T12:03:04;100381.72;;;25.56;72.37
41712;BME280;27399;51.516;13.670;2022-08-01T12:05:30;100385.00;;;25.22;73.07
41712;BME280;27399;51.516;13.670;2022-08-01T12:07:56;100381.06;;;25.78;73.44
41712;BME280;27399;51.516;13.670;2022-08-01T12:10:23;100383.63;;;25.93;73.32
41712;BME280;27399;51.516;13.670;2022-08-01T12:15:15;100380.16;;;25.91;72.54
41712;BME280;27399;51.516;13.670;2022-08-01T12:17:41;100380.72;;;25.83;72.55
41712;BME280;27399;51.516;13.670;2022-08-01T12:20:08;100386.09;;;26.09;72.91
41712;BME280;27399;51.516;13.670;2022-08-01T12:22:34;100391.31;;;25.62;72.16
41712;BME280;27399;51.516;13.670;2022-08-01T12:27:54;100362.28;;;25.35;72.72
41712;BME280;27399;51.516;13.670;2022-08-01T12:30:22;100393.72;;;25.79;71.96
41712;BME280;27399;51.516;13.670;2022-08-01T12:32:49;100404.56;;;25.68;72.51
41712;BME280;27399;51.516;13.670;2022-08-01T12:35:18;100394.25;;;25.84;71.90
41712;BME280;27399;51.516;13.670;2022-08-01T12:37:49;100400.53;;;25.61;71.60
41712;BME280;27399;51.516;13.670;2022-08-01T12:40:16;100400.28;;;25.64;72.35
41712;BME280;27399;51.516;13.670;2022-08-01T12:42:43;100395.63;;;25.53;72.67
41712;BME280;27399;51.516;13.670;2022-08-01T12:45:10;100403.31;;;25.72;72.29
41712;BME280;27399;51.516;13.670;2022-08-01T12:47:38;100411.00;;;25.41;72.38
41712;BME280;27399;51.516;13.670;2022-08-01T12:50:05;100410.34;;;25.63;72.48
41712;BME280;27399;51.516;13.670;2022-08-01T12:52:31;100398.50;;;25.89;72.31
41712;BME280;27399;51.516;13.670;2022-08-01T12:55:07;100413.41;;;25.46;72.45
41712;BME280;27399;51.516;13.670;2022-08-01T12:57:36;100415.03;;;25.74;70.63
41712;BME280;27399;51.516;13.670;2022-08-01T13:00:12;100404.81;;;26.02;70.82
41712;BME280;27399;51.516;13.670;2022-08-01T13:02:39;100417.94;;;25.97;71.54
41712;BME280;27399;51.516;13.670;2022-08-01T13:05:05;100406.28;;;25.56;70.55
41712;BME280;27399;51.516;13.670;2022-08-01T13:07:34;100406.63;;;25.51;71.06
41712;BME280;27399;51.516;13.670;2022-08-01T13:10:00;100404.56;;;25.42;70.93
41712;BME280;27399;51.516;13.670;2022-08-01T13:12:25;100403.81;;;26.16;70.77
41712;BME280;27399;51.516;13.670;2022-08-01T13:14:51;100395.69;;;26.27;68.78